메인 페이지
METAR-TAF:

METAR-TAF

공항 :

Alamogordo / Holloman, 뉴멕시코, 미국

위도: 32-51N, 경도: 106-06W, 고도: 1248m

현재 날씨관측

예보는 31분 전, 22:55시(UTC)에 발표되었습니다.
북동18kt, 순간 최대 풍속 22kt
온도 40°C
습도 8%
기압 1015 hPa
시정: 16.1km
고도 17000ft 상공 구름 많음

METAR: KHMN 132255Z AUTO 05018G22KT 10SM BKN170 40/M01 A2998 RMK AO2 SLP070 T03991006 $

시각: 17:26 (23:26 UTC)

예보

예보는 6 시간 26분 전, 17:00시(UTC)에 발표되었습니다.
예보 대상 시간: 13일 17시부터 14일 23시까지 (UTC)
남서12kt, 순간 최대 풍속 18kt
시정 10km 이상
고도 10000ft 상공 구름 조금
뇌우
전환 중
14일 03시부터 14일 04시까지 (UTC)
여러 방향의 바람 6kt
시정 10km 이상
고도 10000ft 상공 구름 조금
고도 20000ft 상공 구름 보통
전환 중
14일 17시부터 14일 18시까지 (UTC)
15kt, 순간 최대 풍속 25kt
시정 10km 이상
고도 10000ft 상공 구름 보통
고도 20000ft 상공 구름 많음
일시적
14일 20시부터 14일 23시까지 (UTC)
여러 방향의 바람 25kt, 순간 최대 풍속 35kt
시정 10km 이상
고도 6000ft 상공 구름 많음, 적란운.
고도 20000ft 상공 구름 많음
시계 내 뇌우,

TAF: KHMN 131700Z 1317/1423 22012G18KT 9999 FEW100 QNH2993INS TS OMTNS E AFT 1319Z BECMG 1403/1404 VRB06KT 9999 FEW100 SCT200 QNH2996INS BECMG 1417/1418 27015G25KT 9999 SCT100 BKN200 QNH2990INS TEMPO 1420/1423 VRB25G35KT 9999 VCTS BKN060CB BKN200 TX41/1321Z TN19/1312Z

4,000개 이상의 공항 관측 자료 및 예보 (METAR 및 TAF 보고).

지도상에서 검색 가능한 기상관측소가 노란 점과 빨간 점으로 표시되어 있습니다.

기상관측소 명을 보려면 표시 위로 마우스를 이동하세요.

날씨 관측과 예보를 보려면 클릭하세요.

지도 변경 : 확대하려면 엑스 표시가 있는 녹색 버튼, 축소하려면 빼기 표시가 있는 녹색 버튼, 다음 페이지의 지도를 보려면 녹색 화살표를 클릭하세요.


METAR-TAF: